Time;durP1;ratioP1;P1;durP2;ratioP2;P2;SDS_P1;SDS_P2;PMS_P1;PMS_P2;Temp;Humidity;BMP_temperature;BMP_pressure;BME280_temperature;BME280_humidity;BME280_pressure;Samples;Min_cycle;Max_cycle;Signal;HPM_P1;HPM_P2
2023/01/24 00:00:11;;;;;;;51.85;22.33;;;;;;;4.21;100.00;103732.81;5083741;28;20465;-73
2023/01/24 00:02:37;;;;;;;54.50;23.88;;;;;;;4.24;100.00;103732.75;5086967;28;20079;-73
2023/01/24 00:05:04;;;;;;;50.20;23.33;;;;;;;4.21;100.00;103739.06;5071845;28;20051;-73
2023/01/24 00:07:29;;;;;;;54.30;22.75;;;;;;;4.06;100.00;103740.41;5075129;28;20066;-72
2023/01/24 00:09:54;;;;;;;46.58;23.15;;;;;;;4.04;100.00;103734.22;5086683;28;20016;-74
2023/01/24 00:12:20;;;;;;;47.97;23.08;;;;;;;4.07;100.00;103726.06;5075383;28;20020;-73
2023/01/24 00:14:45;;;;;;;50.80;24.75;;;;;;;4.15;100.00;103728.53;5075040;28;20050;-73
2023/01/24 00:17:11;;;;;;;46.80;22.58;;;;;;;4.02;100.00;103738.72;5075359;28;20016;-74
2023/01/24 00:19:36;;;;;;;52.40;23.13;;;;;;;3.99;100.00;103722.75;5079938;28;20372;-73
2023/01/24 00:22:06;;;;;;;46.25;22.10;;;;;;;4.11;100.00;103725.97;5074703;28;20016;-74
2023/01/24 00:24:34;;;;;;;52.10;23.42;;;;;;;4.13;100.00;103718.78;5080569;28;20024;-74
2023/01/24 00:27:00;;;;;;;44.83;22.02;;;;;;;3.96;100.00;103717.47;5075143;28;20050;-74
2023/01/24 00:29:25;;;;;;;51.30;23.60;;;;;;;3.94;100.00;103722.00;5081310;28;20108;-74
2023/01/24 00:31:51;;;;;;;44.03;22.08;;;;;;;4.04;100.00;103710.09;5091571;28;20027;-74
2023/01/24 00:34:16;;;;;;;57.28;23.52;;;;;;;4.13;100.00;103702.69;5079070;28;20020;-75
2023/01/24 00:36:41;;;;;;;52.08;23.88;;;;;;;4.09;100.00;103702.75;5072782;28;20016;-75
2023/01/24 00:39:09;;;;;;;43.40;19.98;;;;;;;3.88;100.00;103703.41;5074264;28;20016;-76
2023/01/24 00:41:35;;;;;;;47.42;22.88;;;;;;;3.77;100.00;103697.47;5075606;28;20062;-75
2023/01/24 00:44:00;;;;;;;49.63;22.23;;;;;;;3.81;100.00;103701.84;5071484;28;20016;-74
2023/01/24 00:46:26;;;;;;;50.08;22.73;;;;;;;3.83;100.00;103705.34;5071212;28;20095;-75
2023/01/24 00:48:51;;;;;;;54.70;24.70;;;;;;;3.86;100.00;103707.97;5073480;28;20361;-76
2023/01/24 00:51:16;;;;;;;50.03;23.17;;;;;;;3.89;100.00;103710.53;5073545;28;20108;-75
2023/01/24 00:53:42;;;;;;;52.63;23.35;;;;;;;3.87;100.00;103707.03;5073827;28;20530;-75
2023/01/24 00:56:07;;;;;;;47.55;21.95;;;;;;;3.91;100.00;103703.34;5073604;28;20019;-76
2023/01/24 00:58:33;;;;;;;49.05;23.33;;;;;;;3.86;100.00;103699.91;5072870;28;20050;-76
2023/01/24 01:01:00;;;;;;;46.55;22.85;;;;;;;3.83;100.00;103700.00;5072846;28;20484;-75
2023/01/24 01:03:25;;;;;;;49.50;23.80;;;;;;;3.92;100.00;103689.00;5073739;28;20023;-77
2023/01/24 01:06:00;;;;;;;51.38;22.67;;;;;;;4.04;100.00;103699.38;5069578;28;20015;-76
2023/01/24 01:08:26;;;;;;;55.75;23.10;;;;;;;4.01;100.00;103686.03;5074649;28;20033;-75
2023/01/24 01:10:51;;;;;;;47.33;22.35;;;;;;;3.96;100.00;103679.06;5072362;28;20020;-75
2023/01/24 01:13:17;;;;;;;51.95;23.63;;;;;;;3.98;100.00;103687.97;5072772;28;20020;-75
2023/01/24 01:15:42;;;;;;;48.78;22.67;;;;;;;4.00;100.00;103686.97;5072650;28;20023;-76
2023/01/24 01:18:08;;;;;;;42.83;20.90;;;;;;;4.01;100.00;103694.09;5074022;28;20020;-75
2023/01/24 01:20:33;;;;;;;47.78;22.67;;;;;;;3.91;100.00;103681.91;5074032;28;20024;-76
2023/01/24 01:22:58;;;;;;;52.78;24.15;;;;;;;3.81;100.00;103683.97;5087214;28;20024;-76
2023/01/24 01:25:24;;;;;;;46.90;22.92;;;;;;;3.85;100.00;103690.13;5081996;28;20024;-76
2023/01/24 01:27:49;;;;;;;50.75;23.52;;;;;;;3.96;100.00;103685.28;5083804;28;20020;-75
2023/01/24 01:30:15;;;;;;;61.83;23.77;;;;;;;3.81;100.00;103675.03;5079094;28;20055;-76
2023/01/24 01:32:40;;;;;;;48.33;22.75;;;;;;;3.82;100.00;103676.78;5072045;28;20028;-75
2023/01/24 01:35:06;;;;;;;47.22;22.27;;;;;;;3.61;100.00;103678.31;5071542;28;20051;-75
2023/01/24 01:37:31;;;;;;;53.47;23.88;;;;;;;3.66;100.00;103686.22;5073105;28;20027;-76
2023/01/24 01:39:56;;;;;;;50.05;22.90;;;;;;;3.77;100.00;103689.44;5078802;28;20028;-76
2023/01/24 01:42:22;;;;;;;49.20;22.83;;;;;;;3.73;100.00;103682.44;5084890;28;20032;-75
2023/01/24 01:44:49;;;;;;;49.03;23.83;;;;;;;3.74;100.00;103676.16;5085316;28;20085;-76
2023/01/24 01:47:15;;;;;;;51.35;24.73;;;;;;;3.56;100.00;103663.28;5072855;28;20023;-76
2023/01/24 01:49:49;;;;;;;51.17;24.13;;;;;;;3.62;100.00;103685.41;5078497;28;20111;-74
2023/01/24 01:52:15;;;;;;;47.08;22.85;;;;;;;3.75;100.00;103675.22;5072836;28;20016;-75
2023/01/24 01:54:45;;;;;;;57.40;21.60;;;;;;;3.75;100.00;103681.47;5078765;28;20026;-74
2023/01/24 01:57:16;;;;;;;55.17;23.08;;;;;;;3.89;100.00;103680.16;5087921;28;20035;-75
2023/01/24 02:00:05;;;;;;;;;;;;;;;3.84;100.00;103680.31;5075527;28;20169;-75
2023/01/24 02:02:31;;;;;;;51.15;24.00;;;;;;;3.76;100.00;103676.97;5064706;28;19987;-75
2023/01/24 02:05:03;;;;;;;52.60;23.35;;;;;;;3.92;100.00;103678.28;5070930;28;20396;-75
2023/01/24 02:07:31;;;;;;;;;;;;;;;3.92;100.00;103669.38;5068900;28;20023;-75
2023/01/24 02:09:58;;;;;;;49.20;23.63;;;;;;;3.80;100.00;103668.81;5070178;28;19960;-75
2023/01/24 02:12:27;;;;;;;53.10;23.08;;;;;;;3.82;100.00;103671.44;5080421;28;20052;-75
2023/01/24 02:17:50;;;;;;;48.38;21.48;;;;;;;3.87;100.00;103669.50;5090340;28;20418;-75
2023/01/24 02:20:36;;;;;;;54.63;23.90;;;;;;;3.94;100.00;103681.78;5072314;28;20073;-75
2023/01/24 02:23:04;;;;;;;56.05;23.10;;;;;;;4.00;100.00;103668.22;5072062;28;20024;-76
2023/01/24 02:25:32;;;;;;;47.42;24.20;;;;;;;3.92;100.00;103667.56;5077513;28;20484;-77
2023/01/24 02:27:59;;;;;;;46.65;21.35;;;;;;;3.98;100.00;103672.75;5071524;28;20077;-76
2023/01/24 02:30:24;;;;;;;48.20;23.83;;;;;;;3.91;100.00;103676.53;5077743;28;20135;-76
2023/01/24 02:32:50;;;;;;;46.65;22.02;;;;;;;3.95;100.00;103672.81;5072118;28;20532;-74
2023/01/24 02:35:24;;;;;;;48.35;20.20;;;;;;;3.91;100.00;103673.84;5072606;28;20020;-74
2023/01/24 02:37:50;;;;;;;45.50;21.85;;;;;;;3.89;100.00;103673.00;5071976;28;20032;-75
2023/01/24 02:40:17;;;;;;;57.72;24.67;;;;;;;3.87;100.00;103671.31;5077918;28;20028;-74
2023/01/24 02:42:42;;;;;;;51.47;24.55;;;;;;;3.79;100.00;103671.53;5079967;28;20083;-76
2023/01/24 02:45:24;;;;;;;54.03;21.70;;;;;;;3.76;100.00;103682.34;5072088;28;20023;-74
2023/01/24 02:47:52;;;;;;;53.33;23.75;;;;;;;3.68;100.00;103679.00;5082239;28;20115;-74
2023/01/24 02:50:19;;;;;;;50.70;24.02;;;;;;;3.85;100.00;103691.91;5076130;28;20031;-75
2023/01/24 02:55:33;;;;;;;59.10;23.90;;;;;;;3.91;100.00;103687.25;5094005;28;20142;-75
2023/01/24 02:58:08;;;;;;;55.85;23.27;;;;;;;3.94;100.00;103681.78;5076573;28;20028;-75
2023/01/24 03:00:39;;;;;;;55.70;23.02;;;;;;;3.84;100.00;103691.03;5084387;28;20034;-74
2023/01/24 03:03:07;;;;;;;52.28;23.70;;;;;;;3.87;100.00;103685.59;5087718;28;20504;-74
2023/01/24 03:05:39;;;;;;;52.00;22.52;;;;;;;3.79;100.00;103682.25;5075728;28;20034;-75
2023/01/24 03:08:07;;;;;;;48.70;23.70;;;;;;;3.76;100.00;103693.06;5075637;28;20024;-75
2023/01/24 03:10:33;;;;;;;50.28;23.35;;;;;;;3.81;100.00;103692.00;5082789;28;20039;-74
2023/01/24 03:34:52;;;;;;;45.53;21.85;;;;;;;3.80;100.00;103700.09;5092939;28;20032;-75
2023/01/24 03:39:53;;;;;;;53.55;23.45;;;;;;;3.96;100.00;103701.38;5074900;28;20019;-75
2023/01/24 03:40:08;;;;;;;51.90;22.40;;;;;;;3.92;100.00;103694.38;5092388;28;20036;-75
2023/01/24 03:42:34;;;;;;;52.58;24.73;;;;;;;3.94;100.00;103708.59;5076680;28;20059;-76
2023/01/24 03:45:00;;;;;;;55.33;23.60;;;;;;;3.73;100.00;103709.25;5081536;28;20058;-75
2023/01/24 03:47:26;;;;;;;49.63;22.25;;;;;;;3.76;100.00;103709.13;5081000;28;20047;-76
2023/01/24 03:52:35;;;;;;;57.10;23.98;;;;;;;3.96;100.00;103700.50;5092989;28;20031;-75
2023/01/24 03:55:01;;;;;;;58.00;22.25;;;;;;;3.85;100.00;103700.84;5079932;28;20016;-75
2023/01/24 03:57:28;;;;;;;50.53;23.92;;;;;;;3.86;100.00;103693.69;5074292;28;20158;-75
2023/01/24 03:59:53;;;;;;;58.25;23.48;;;;;;;3.74;100.00;103702.94;5077205;28;20024;-76
2023/01/24 04:02:19;;;;;;;51.88;24.65;;;;;;;3.70;100.00;103698.59;5081945;28;20027;-76
2023/01/24 04:07:29;;;;;;;50.35;21.85;;;;;;;3.81;100.00;103699.16;5092348;28;20020;-75
2023/01/24 04:09:54;;;;;;;46.83;20.00;;;;;;;3.82;100.00;103700.91;5078041;28;20121;-76
2023/01/24 04:12:20;;;;;;;51.28;22.48;;;;;;;3.94;100.00;103697.88;5089720;28;20060;-76
2023/01/24 04:14:45;;;;;;;47.60;23.02;;;;;;;3.94;100.00;103697.88;5074481;28;20016;-75
2023/01/24 04:17:11;;;;;;;45.60;21.02;;;;;;;3.87;100.00;103701.66;5080492;28;20109;-75
2023/01/24 04:19:36;;;;;;;52.17;22.92;;;;;;;3.95;100.00;103710.34;5084368;28;20022;-74
2023/01/24 04:22:02;;;;;;;45.55;20.35;;;;;;;3.94;100.00;103700.56;5084461;28;20059;-75
2023/01/24 04:24:27;;;;;;;50.83;22.13;;;;;;;3.90;100.00;103712.28;5074435;28;20089;-74
2023/01/24 04:26:53;;;;;;;37.42;18.42;;;;;;;3.88;100.00;103708.78;5073924;28;20020;-75
2023/01/24 04:29:18;;;;;;;38.17;17.40;;;;;;;3.91;100.00;103707.78;5074291;28;20035;-75
2023/01/24 04:31:44;;;;;;;41.53;18.55;;;;;;;3.90;100.00;103711.41;5076850;28;20026;-74
2023/01/24 04:34:09;;;;;;;39.30;18.48;;;;;;;3.96;100.00;103720.16;5071714;28;20059;-74
2023/01/24 04:36:34;;;;;;;42.72;19.23;;;;;;;3.99;100.00;103722.75;5068447;28;20020;-75
2023/01/24 04:39:00;;;;;;;41.85;19.00;;;;;;;4.04;100.00;103715.47;5078691;28;20024;-75
2023/01/24 04:41:26;;;;;;;34.08;17.60;;;;;;;3.87;100.00;103717.75;5075117;28;20168;-75
2023/01/24 04:43:51;;;;;;;36.22;18.02;;;;;;;3.85;100.00;103714.25;5086131;28;20016;-75
2023/01/24 04:46:17;;;;;;;39.00;18.38;;;;;;;3.79;100.00;103711.75;5080786;28;20102;-76
2023/01/24 04:48:42;;;;;;;39.15;18.08;;;;;;;3.84;100.00;103715.16;5084367;28;20028;-75
2023/01/24 04:51:09;;;;;;;39.95;19.63;;;;;;;3.84;100.00;103717.81;5074805;28;20047;-75
2023/01/24 04:53:38;;;;;;;40.75;17.60;;;;;;;3.69;100.00;103713.78;5075183;28;20108;-75
2023/01/24 04:56:04;;;;;;;39.67;17.83;;;;;;;3.65;100.00;103716.59;5090000;28;20056;-75
2023/01/24 04:58:30;;;;;;;40.20;16.25;;;;;;;3.80;100.00;103718.84;5074241;28;20109;-74
2023/01/24 05:00:56;;;;;;;38.60;15.40;;;;;;;3.94;100.00;103708.59;5073454;28;20023;-75
2023/01/24 05:03:21;;;;;;;31.05;14.75;;;;;;;3.87;100.00;103707.03;5073654;28;20032;-74
2023/01/24 05:05:52;;;;;;;33.00;15.27;;;;;;;3.91;100.00;103714.06;5073230;28;20020;-74
2023/01/24 05:08:17;;;;;;;36.33;15.60;;;;;;;3.94;100.00;103708.59;5080628;28;20038;-75
2023/01/24 05:10:44;;;;;;;28.52;14.73;;;;;;;3.88;100.00;103714.16;5076843;28;20102;-75
2023/01/24 05:13:09;;;;;;;37.00;16.80;;;;;;;3.90;100.00;103704.25;5073339;28;20020;-75
2023/01/24 05:15:35;;;;;;;33.58;15.50;;;;;;;3.88;100.00;103708.78;5091595;28;20518;-75
2023/01/24 05:18:01;;;;;;;28.67;13.20;;;;;;;3.90;100.00;103709.59;5079945;28;20038;-74
2023/01/24 05:20:27;;;;;;;26.67;13.35;;;;;;;3.57;100.00;103707.91;5073497;28;20027;-75
2023/01/24 05:22:55;;;;;;;22.65;12.05;;;;;;;3.64;100.00;103714.84;5076972;28;20020;-74
2023/01/24 05:25:21;;;;;;;22.38;10.73;;;;;;;3.36;100.00;103715.63;5057394;28;20056;-75
2023/01/24 05:27:46;;;;;;;18.38;10.88;;;;;;;3.58;100.00;103715.00;5073451;28;20062;-74
2023/01/24 05:30:12;;;;;;;20.50;10.02;;;;;;;3.66;100.00;103713.91;5079213;28;20027;-74
2023/01/24 05:32:37;;;;;;;18.77;9.32;;;;;;;3.69;100.00;103712.91;5074387;28;20357;-75
2023/01/24 05:35:04;;;;;;;16.63;9.07;;;;;;;3.67;100.00;103709.41;5070523;28;20032;-74
2023/01/24 05:37:30;;;;;;;17.52;8.93;;;;;;;3.84;100.00;103709.78;5072731;28;20020;-75
2023/01/24 05:39:55;;;;;;;15.68;8.25;;;;;;;3.66;99.18;103718.38;5072610;28;20024;-75
2023/01/24 05:42:21;;;;;;;24.27;10.85;;;;;;;3.51;100.00;103709.81;5082186;28;20385;-75
2023/01/24 05:44:46;;;;;;;21.00;9.50;;;;;;;3.64;100.00;103715.72;5085385;28;20097;-75
2023/01/24 05:47:12;;;;;;;24.65;11.73;;;;;;;3.68;100.00;103713.84;5073710;28;20141;-75
2023/01/24 05:49:37;;;;;;;19.90;11.27;;;;;;;3.65;100.00;103713.91;5080697;28;20069;-75
2023/01/24 05:52:02;;;;;;;24.35;11.77;;;;;;;3.79;100.00;103714.44;5086750;28;20023;-76
2023/01/24 05:54:28;;;;;;;24.52;11.40;;;;;;;3.78;100.00;103718.91;5082513;28;20052;-75
2023/01/24 05:56:54;;;;;;;19.88;10.10;;;;;;;3.75;99.89;103710.06;5089806;28;20543;-76
2023/01/24 05:59:19;;;;;;;22.60;10.45;;;;;;;3.56;99.36;103716.88;5080803;28;20019;-76
2023/01/24 06:01:45;;;;;;;20.08;9.00;;;;;;;3.49;99.20;103716.16;5083586;28;20028;-75
2023/01/24 06:04:10;;;;;;;21.88;9.15;;;;;;;3.62;98.56;103716.69;5082194;28;20044;-75
2023/01/24 06:06:36;;;;;;;18.25;8.65;;;;;;;3.58;99.00;103720.38;5077023;28;20016;-75
2023/01/24 06:09:01;;;;;;;15.15;8.88;;;;;;;3.76;98.26;103720.72;5079782;28;20016;-76
2023/01/24 06:11:27;;;;;;;20.00;9.68;;;;;;;3.75;98.11;103718.09;5072464;28;20077;-75
2023/01/24 06:13:55;;;;;;;15.07;7.95;;;;;;;3.54;98.31;103720.47;5073939;28;20073;-75
2023/01/24 06:16:22;;;;;;;19.73;8.50;;;;;;;3.66;97.78;103718.38;5088407;28;20438;-75
2023/01/24 06:18:49;;;;;;;16.58;8.52;;;;;;;3.66;98.02;103723.75;5080056;28;20024;-74
2023/01/24 06:21:35;;;;;;;16.30;8.88;;;;;;;3.61;98.04;103714.94;5078263;28;20028;-74
2023/01/24 06:24:02;;;;;;;17.40;9.20;;;;;;;3.63;98.53;103718.44;5085764;28;20122;-74
2023/01/24 06:26:28;;;;;;;23.58;9.52;;;;;;;3.45;99.51;103726.06;5080204;28;20051;-75
2023/01/24 06:28:53;;;;;;;18.90;8.55;;;;;;;3.49;99.56;103727.75;5076746;28;20051;-75
2023/01/24 06:31:37;;;;;;;22.35;8.95;;;;;;;3.37;98.70;103728.09;5079624;28;20070;-75
2023/01/24 06:34:37;;;;;;;16.08;7.10;;;;;;;3.37;98.02;103744.16;5072604;28;20028;-75
2023/01/24 06:37:05;;;;;;;16.20;7.80;;;;;;;3.52;98.84;103732.13;5071343;28;20451;-74
2023/01/24 06:39:31;;;;;;;16.30;8.10;;;;;;;3.66;97.85;103734.47;5073323;28;20030;-74
2023/01/24 06:41:56;;;;;;;17.25;7.72;;;;;;;3.67;97.41;103742.44;5077969;28;20115;-74
2023/01/24 06:44:22;;;;;;;13.73;7.88;;;;;;;3.68;97.28;103737.97;5079892;28;20062;-73
2023/01/24 06:46:48;;;;;;;22.88;9.05;;;;;;;3.57;97.70;103740.06;5071873;28;20026;-73
2023/01/24 06:49:14;;;;;;;19.15;8.70;;;;;;;3.47;98.49;103734.97;5071926;28;20028;-74
2023/01/24 06:51:39;;;;;;;19.42;8.75;;;;;;;3.32;99.32;103740.72;5071573;28;20074;-74
2023/01/24 06:54:05;;;;;;;18.67;10.15;;;;;;;3.37;99.78;103744.16;5077645;28;20492;-74
2023/01/24 06:56:31;;;;;;;23.90;9.52;;;;;;;3.52;99.67;103742.84;5072046;28;20027;-74
2023/01/24 06:58:56;;;;;;;21.50;9.55;;;;;;;3.10;100.00;103742.22;5072756;28;20028;-73
2023/01/24 07:01:21;;;;;;;20.85;8.95;;;;;;;3.21;100.00;103745.50;5087709;28;20519;-74
2023/01/24 07:03:47;;;;;;;20.88;10.38;;;;;;;3.27;99.55;103745.34;5083311;28;20111;-74
2023/01/24 07:06:13;;;;;;;30.77;11.18;;;;;;;3.35;99.57;103740.66;5066612;28;20039;-74
2023/01/24 07:08:38;;;;;;;20.65;9.50;;;;;;;3.44;99.56;103748.41;5065352;28;20095;-74
2023/01/24 07:11:03;;;;;;;25.02;11.15;;;;;;;3.44;99.48;103756.47;5069410;28;20020;-73
2023/01/24 07:13:29;;;;;;;18.25;9.07;;;;;;;3.51;98.51;103758.03;5072021;28;20041;-74
2023/01/24 07:15:54;;;;;;;16.48;8.93;;;;;;;3.17;99.59;103757.19;5071948;28;20050;-73
2023/01/24 07:18:20;;;;;;;19.33;8.70;;;;;;;3.05;99.95;103757.50;5071393;28;20020;-75
2023/01/24 07:20:46;;;;;;;22.20;10.40;;;;;;;3.36;99.36;103769.19;5070282;28;20027;-74
2023/01/24 07:23:28;;;;;;;20.92;10.55;;;;;;;3.42;99.83;103768.16;5071246;28;20023;-74
2023/01/24 07:25:53;;;;;;;;;;;;;;;3.45;98.84;103768.94;5071152;28;20047;-74
2023/01/24 07:28:19;;;;;;;21.67;11.00;;;;;;;3.41;99.45;103772.63;5071609;28;20288;-74
2023/01/24 07:30:45;;;;;;;20.60;10.68;;;;;;;3.68;98.86;103775.47;5071494;28;20073;-74
2023/01/24 07:33:14;;;;;;;19.23;9.63;;;;;;;3.75;98.00;103769.91;5073625;28;20111;-72
2023/01/24 07:35:41;;;;;;;21.58;9.95;;;;;;;3.77;97.83;103769.84;5074662;28;20107;-73
2023/01/24 07:38:07;;;;;;;20.08;9.23;;;;;;;3.65;97.65;103772.88;5072448;28;20038;-71
2023/01/24 07:40:32;;;;;;;21.17;10.35;;;;;;;3.50;98.78;103777.72;5074441;28;20012;-71
2023/01/24 07:43:01;;;;;;;21.13;9.77;;;;;;;3.38;99.45;103772.69;5074154;28;20026;-72
2023/01/24 07:45:27;;;;;;;22.33;8.77;;;;;;;3.28;99.54;103776.53;5073795;28;20024;-72
2023/01/24 07:47:59;;;;;;;17.13;8.25;;;;;;;3.17;99.48;103783.97;5074495;28;20602;-71
2023/01/24 07:50:25;;;;;;;;;;;;;;;3.12;99.91;103780.50;5074980;28;20020;-71
2023/01/24 07:52:54;;;;;;;23.58;10.30;;;;;;;3.43;99.42;103791.31;5074566;28;19919;-72
2023/01/24 07:55:20;;;;;;;24.00;11.25;;;;;;;3.44;99.26;103785.03;5082148;28;20016;-72
2023/01/24 07:57:45;;;;;;;19.55;10.45;;;;;;;3.14;99.93;103789.41;5066883;28;20620;-74
2023/01/24 08:00:11;;;;;;;26.48;10.57;;;;;;;3.16;100.00;103798.28;5049114;28;20028;-74
2023/01/24 08:02:37;;;;;;;21.92;11.43;;;;;;;3.15;100.00;103801.88;5057511;28;20135;-71
2023/01/24 08:05:02;;;;;;;17.38;9.55;;;;;;;3.20;99.90;103805.31;5062777;28;20110;-74
2023/01/24 08:07:28;;;;;;;24.02;10.07;;;;;;;3.23;100.00;103800.75;5055610;28;20016;-73
2023/01/24 08:09:53;;;;;;;29.92;13.90;;;;;;;3.25;99.79;103800.72;5066794;28;20047;-72
2023/01/24 08:12:20;;;;;;;21.73;9.63;;;;;;;3.22;100.00;103792.75;5066746;28;20016;-72
2023/01/24 08:14:45;;;;;;;18.15;8.82;;;;;;;3.07;100.00;103793.16;5066328;28;20043;-72
2023/01/24 08:17:10;;;;;;;18.35;9.38;;;;;;;3.24;99.39;103796.28;5066867;28;20547;-74
2023/01/24 08:19:37;;;;;;;18.13;8.80;;;;;;;3.25;98.83;103798.03;5067541;28;20024;-72
2023/01/24 08:22:03;;;;;;;15.63;8.10;;;;;;;3.36;98.34;103790.59;5068405;28;20028;-73
2023/01/24 08:24:28;;;;;;;18.05;8.38;;;;;;;3.49;98.34;103802.75;5069974;28;20097;-72
2023/01/24 08:26:54;;;;;;;16.08;8.95;;;;;;;3.30;98.76;103790.75;5067290;28;20111;-72
2023/01/24 08:29:19;;;;;;;23.75;9.95;;;;;;;3.32;97.98;103804.97;5067900;28;20054;-72
2023/01/24 08:31:45;;;;;;;20.33;8.63;;;;;;;3.12;99.32;103807.28;5067527;28;20023;-72
2023/01/24 08:34:10;;;;;;;22.48;10.15;;;;;;;3.22;99.23;103814.19;5067749;28;20031;-74
2023/01/24 08:36:36;;;;;;;21.30;9.85;;;;;;;3.35;99.46;103804.94;5068035;28;20015;-73
2023/01/24 08:39:04;;;;;;;24.38;9.43;;;;;;;3.47;98.69;103815.31;5066177;28;20024;-72
2023/01/24 08:41:29;;;;;;;21.05;10.45;;;;;;;3.42;98.54;103811.88;5067483;28;20020;-72
2023/01/24 08:43:55;;;;;;;23.98;9.13;;;;;;;3.35;99.11;103815.63;5067254;28;20020;-72
2023/01/24 08:46:20;;;;;;;17.35;9.50;;;;;;;3.45;98.97;103811.78;5066148;28;20097;-73
2023/01/24 08:48:45;;;;;;;15.43;8.75;;;;;;;3.10;99.37;103809.13;5067164;28;20020;-74
2023/01/24 08:51:11;;;;;;;22.88;9.15;;;;;;;3.25;99.00;103814.09;5066477;28;20012;-73
2023/01/24 08:53:36;;;;;;;22.33;10.38;;;;;;;3.26;99.66;103815.88;5063172;28;20341;-72
2023/01/24 08:56:02;;;;;;;25.98;9.00;;;;;;;3.23;99.24;103805.22;5066049;28;20142;-73
2023/01/24 08:58:27;;;;;;;21.95;9.63;;;;;;;3.34;99.23;103813.88;5067670;28;20043;-74
2023/01/24 09:00:53;;;;;;;31.88;9.07;;;;;;;3.45;99.12;103811.78;5065222;28;20114;-72
2023/01/24 09:03:18;;;;;;;18.90;9.18;;;;;;;3.30;99.01;103812.19;5067133;28;20024;-73
2023/01/24 09:05:45;;;;;;;22.92;9.95;;;;;;;3.38;99.39;103814.66;5067819;28;20100;-72
2023/01/24 09:08:11;;;;;;;18.90;8.73;;;;;;;3.28;99.20;103814.03;5066347;28;20016;-73
2023/01/24 09:10:37;;;;;;;19.98;8.15;;;;;;;3.16;99.06;103814.34;5066205;28;20012;-72
2023/01/24 09:13:03;;;;;;;19.55;8.85;;;;;;;3.31;98.30;103808.59;5067531;28;20028;-73
2023/01/24 09:15:29;;;;;;;18.90;9.13;;;;;;;3.35;98.09;103815.63;5084433;28;20058;-73
2023/01/24 09:17:55;;;;;;;23.23;9.93;;;;;;;3.51;98.59;103811.63;5067680;28;20032;-73
2023/01/24 09:20:20;;;;;;;19.33;9.20;;;;;;;3.58;97.86;103816.81;5065345;28;20028;-73
2023/01/24 09:22:46;;;;;;;21.27;9.82;;;;;;;3.60;97.61;103815.00;5067284;28;20023;-72
2023/01/24 09:25:12;;;;;;;22.08;8.98;;;;;;;3.61;97.23;103822.13;5066455;28;20034;-73
2023/01/24 09:27:41;;;;;;;14.35;7.93;;;;;;;3.75;95.69;103819.94;5085932;28;20080;-74
2023/01/24 09:30:08;;;;;;;14.57;8.10;;;;;;;3.79;96.79;103827.00;5066971;28;20020;-73
2023/01/24 09:32:35;;;;;;;17.00;7.85;;;;;;;3.76;96.01;103827.94;5077711;28;20442;-73
2023/01/24 09:35:01;;;;;;;16.35;7.72;;;;;;;3.82;96.10;103824.22;5060619;28;20062;-73
2023/01/24 09:37:26;;;;;;;18.83;8.55;;;;;;;3.91;95.92;103829.34;5055971;28;20508;-73
2023/01/24 09:39:55;;;;;;;16.48;7.90;;;;;;;3.79;96.55;103832.34;5057029;28;20035;-74
2023/01/24 09:42:37;;;;;;;17.15;7.82;;;;;;;3.93;95.90;103835.53;5066342;28;20046;-70
2023/01/24 09:45:06;;;;;;;;;;;;;;;3.87;95.36;103829.47;5069120;28;20024;-71
2023/01/24 09:47:45;;;;;;;19.75;8.77;;;;;;;3.72;95.48;103820.03;5066474;28;19923;-70
2023/01/24 09:50:47;;;;;;;23.90;9.45;;;;;;;3.70;96.14;103822.72;5067473;28;20024;-71
2023/01/24 09:53:29;;;;;;;21.08;9.77;;;;;;;3.45;97.73;103827.84;5043650;28;20101;-71
2023/01/24 09:55:55;;;;;;;22.35;9.95;;;;;;;3.47;97.53;103826.03;5085233;28;20080;-71
2023/01/24 09:58:33;;;;;;;17.60;9.48;;;;;;;3.76;96.77;103827.06;5068324;28;20020;-70
2023/01/24 10:01:08;;;;;;;16.38;8.45;;;;;;;3.78;95.77;103831.47;5067215;28;20073;-71
2023/01/24 10:03:36;;;;;;;19.60;9.43;;;;;;;3.67;95.36;103827.31;5068074;28;20115;-72
2023/01/24 10:06:20;;;;;;;18.13;8.32;;;;;;;3.36;97.17;103822.75;5069191;28;20077;-71
2023/01/24 10:09:21;;;;;;;20.88;9.05;;;;;;;3.61;96.06;103811.41;5083773;28;20024;-72
2023/01/24 10:12:08;;;;;;;22.13;9.43;;;;;;;3.71;96.96;103820.94;5066445;28;20111;-72
2023/01/24 10:15:05;;;;;;;19.60;9.82;;;;;;;3.61;96.39;103816.75;5066263;28;20030;-71
2023/01/24 10:17:40;;;;;;;22.17;9.57;;;;;;;3.48;96.37;103810.84;5067059;28;20027;-72
2023/01/24 10:20:11;;;;;;;17.95;9.38;;;;;;;3.30;96.07;103812.19;5066553;28;20035;-71
2023/01/24 10:23:03;;;;;;;16.63;9.30;;;;;;;3.27;96.84;103798.91;5069428;28;20022;-73
2023/01/24 10:26:01;;;;;;;23.25;9.85;;;;;;;3.17;98.07;103800.91;5066313;28;20076;-73
2023/01/24 10:28:40;;;;;;;29.20;11.65;;;;;;;2.90;98.70;103797.13;5060362;28;20031;-71
2023/01/24 10:31:32;;;;;;;22.70;10.98;;;;;;;3.08;98.51;103794.91;5086050;28;20005;-72
2023/01/24 10:34:08;;;;;;;27.80;12.20;;;;;;;3.19;97.80;103798.19;5053947;28;20084;-73
2023/01/24 10:36:50;;;;;;;24.00;11.27;;;;;;;3.14;97.83;103794.75;5086584;28;20020;-74
2023/01/24 10:39:15;;;;;;;26.10;11.90;;;;;;;3.04;98.92;103788.75;5067960;28;20081;-73
2023/01/24 10:41:40;;;;;;;20.75;10.65;;;;;;;3.22;98.91;103788.28;5068417;28;20028;-72
2023/01/24 10:44:23;;;;;;;21.55;10.82;;;;;;;3.42;97.76;103790.44;5067470;28;20024;-73
2023/01/24 10:47:18;;;;;;;24.90;11.48;;;;;;;3.42;97.81;103785.09;5061118;28;20032;-73
2023/01/24 10:49:52;;;;;;;26.25;10.93;;;;;;;3.56;96.43;103791.88;5061769;28;20157;-73
2023/01/24 10:52:19;;;;;;;30.08;11.88;;;;;;;3.40;97.25;103781.59;5067872;28;20016;-72
2023/01/24 10:54:56;;;;;;;27.80;11.85;;;;;;;3.59;96.42;103794.50;5066233;28;20043;-73
2023/01/24 10:57:34;;;;;;;22.30;10.95;;;;;;;3.47;96.45;103777.81;5067863;28;20030;-72
2023/01/24 11:00:05;;;;;;;22.58;11.32;;;;;;;2.90;98.49;103786.41;5084749;28;20346;-72
2023/01/24 11:02:34;;;;;;;26.23;12.33;;;;;;;3.43;97.58;103780.63;5068602;28;20498;-74
2023/01/24 11:05:03;;;;;;;24.23;10.63;;;;;;;3.38;97.31;103787.88;5067093;28;20280;-72
2023/01/24 11:07:33;;;;;;;21.38;10.32;;;;;;;3.59;95.95;103787.34;5075078;28;20028;-72
2023/01/24 11:10:17;;;;;;;21.40;10.70;;;;;;;3.53;96.86;103771.44;5073229;28;20012;-73
2023/01/24 11:12:57;;;;;;;22.83;11.27;;;;;;;3.57;97.42;103786.47;5064450;28;20019;-74
2023/01/24 11:16:01;;;;;;;22.42;11.20;;;;;;;3.64;95.43;103789.88;5088400;28;20021;-73
2023/01/24 11:18:27;;;;;;;21.17;11.82;;;;;;;3.63;95.34;103782.75;5055100;28;20039;-74
2023/01/24 11:21:13;;;;;;;22.92;10.90;;;;;;;3.53;97.04;103785.69;5067266;28;20070;-73
2023/01/24 11:23:40;;;;;;;23.30;11.77;;;;;;;3.74;95.99;103780.66;5070776;28;20020;-72
2023/01/24 11:26:20;;;;;;;24.10;12.55;;;;;;;3.70;96.25;103778.97;5069939;28;20020;-72
2023/01/24 11:28:56;;;;;;;18.85;10.88;;;;;;;3.85;95.14;103783.03;5069380;28;20104;-72
2023/01/24 11:31:29;;;;;;;19.70;10.27;;;;;;;3.82;95.19;103786.69;5069426;28;20154;-74
2023/01/24 11:34:12;;;;;;;24.45;12.00;;;;;;;3.83;95.56;103780.41;5070179;28;20046;-72
2023/01/24 11:36:59;;;;;;;21.17;11.55;;;;;;;3.64;95.09;103768.44;5058758;28;20025;-72
2023/01/24 11:39:48;;;;;;;22.00;11.18;;;;;;;3.36;96.66;103755.78;5069498;28;20036;-72
2023/01/24 11:42:26;;;;;;;25.98;11.27;;;;;;;3.28;96.97;103755.13;5069373;28;20044;-74
2023/01/24 11:45:13;;;;;;;24.33;11.32;;;;;;;3.60;96.59;103761.41;5083365;28;20039;-74
2023/01/24 11:47:55;;;;;;;20.50;11.25;;;;;;;3.44;96.39;103761.81;5087280;28;20194;-73
2023/01/24 11:50:42;;;;;;;25.10;11.15;;;;;;;3.62;95.88;103765.81;5069190;28;20051;-74
2023/01/24 11:53:26;;;;;;;18.35;10.23;;;;;;;3.53;95.32;103766.94;5086410;28;20024;-71
2023/01/24 11:56:20;;;;;;;23.85;11.02;;;;;;;3.35;96.55;103761.19;5061773;28;20047;-73
2023/01/24 11:59:23;;;;;;;23.00;11.40;;;;;;;3.50;95.74;103761.66;5062824;28;20039;-72